createdAt,value
2022-09-12T00:01:11.416Z,100.00
2022-09-12T00:03:38.629Z,100.00
2022-09-12T00:06:24.628Z,100.00
2022-09-12T00:08:51.617Z,100.00
2022-09-12T00:11:18.215Z,100.00
2022-09-12T00:13:44.588Z,100.00
2022-09-12T00:16:21.649Z,100.00
2022-09-12T00:18:48.529Z,100.00
2022-09-12T00:21:15.681Z,100.00
2022-09-12T00:23:42.154Z,100.00
2022-09-12T00:26:08.709Z,100.00
2022-09-12T00:28:36.116Z,100.00
2022-09-12T00:31:10.163Z,100.00
2022-09-12T00:33:36.729Z,100.00
2022-09-12T00:36:22.313Z,100.00
2022-09-12T00:38:49.769Z,100.00
2022-09-12T00:41:26.455Z,100.00
2022-09-12T00:43:54.083Z,100.00
2022-09-12T00:46:23.248Z,100.00
2022-09-12T00:48:52.163Z,100.00
2022-09-12T00:51:19.085Z,100.00
2022-09-12T00:53:46.520Z,100.00
2022-09-12T00:56:15.667Z,100.00
2022-09-12T00:58:50.521Z,100.00
2022-09-12T01:01:17.279Z,100.00
2022-09-12T01:03:44.567Z,100.00
2022-09-12T01:06:16.891Z,100.00
2022-09-12T01:08:43.732Z,100.00
2022-09-12T01:11:11.474Z,100.00
2022-09-12T01:13:37.963Z,100.00
2022-09-12T01:16:05.962Z,100.00
2022-09-12T01:18:41.963Z,100.00
2022-09-12T01:21:18.245Z,100.00
2022-09-12T01:24:07.958Z,100.00
2022-09-12T01:26:43.349Z,100.00
2022-09-12T01:29:15.866Z,100.00
2022-09-12T01:31:51.175Z,100.00
2022-09-12T01:34:20.589Z,100.00
2022-09-12T01:36:52.903Z,100.00
2022-09-12T01:39:34.563Z,100.00
2022-09-12T01:42:16.288Z,100.00
2022-09-12T01:44:48.707Z,100.00
2022-09-12T01:47:24.135Z,100.00
2022-09-12T01:49:57.363Z,100.00
2022-09-12T01:52:36.076Z,100.00
2022-09-12T01:55:09.685Z,100.00
2022-09-12T01:57:50.177Z,100.00
2022-09-12T02:00:16.627Z,100.00
2022-09-12T02:02:48.495Z,100.00
2022-09-12T02:05:18.618Z,100.00
2022-09-12T02:07:47.459Z,100.00
2022-09-12T02:10:40.099Z,100.00
2022-09-12T02:13:15.094Z,100.00
2022-09-12T02:15:45.597Z,100.00
2022-09-12T02:18:14.494Z,100.00
2022-09-12T02:20:48.466Z,100.00
2022-09-12T02:23:27.474Z,100.00
2022-09-12T02:25:56.743Z,100.00
2022-09-12T02:28:35.197Z,100.00
2022-09-12T02:31:22.051Z,100.00
2022-09-12T02:33:51.437Z,100.00
2022-09-12T02:36:24.064Z,100.00
2022-09-12T02:38:50.769Z,100.00
2022-09-12T02:41:19.399Z,100.00
2022-09-12T02:43:46.448Z,100.00
2022-09-12T02:46:22.114Z,100.00
2022-09-12T02:48:48.483Z,100.00
2022-09-12T02:51:15.185Z,100.00
2022-09-12T02:53:41.751Z,100.00
2022-09-12T02:56:11.042Z,100.00
2022-09-12T02:58:37.410Z,100.00
2022-09-12T03:01:22.951Z,100.00
2022-09-12T03:03:59.288Z,100.00
2022-09-12T03:06:37.950Z,100.00
2022-09-12T03:09:21.153Z,100.00
2022-09-12T03:11:50.845Z,100.00
2022-09-12T03:14:23.242Z,100.00
2022-09-12T03:16:52.779Z,100.00
2022-09-12T03:19:42.277Z,100.00
2022-09-12T03:22:27.374Z,100.00
2022-09-12T03:24:58.274Z,100.00
2022-09-12T03:27:30.131Z,100.00
2022-09-12T03:29:56.678Z,100.00
2022-09-12T03:32:41.765Z,100.00
2022-09-12T03:35:08.334Z,100.00
2022-09-12T03:37:34.658Z,100.00
2022-09-12T03:40:01.144Z,100.00
2022-09-12T03:42:27.477Z,100.00
2022-09-12T03:44:53.876Z,100.00
2022-09-12T03:47:20.390Z,100.00
2022-09-12T03:49:46.793Z,100.00
2022-09-12T03:52:13.188Z,100.00
2022-09-12T03:54:39.800Z,100.00
2022-09-12T03:57:06.174Z,100.00
2022-09-12T03:59:32.875Z,100.00
2022-09-12T04:01:59.540Z,100.00
2022-09-12T04:04:26.105Z,100.00
2022-09-12T04:06:52.440Z,100.00
2022-09-12T04:09:18.898Z,100.00
2022-09-12T04:11:45.241Z,100.00
2022-09-12T04:14:11.624Z,100.00
2022-09-12T04:16:38.111Z,100.00
2022-09-12T04:19:04.837Z,100.00
2022-09-12T04:21:31.346Z,100.00
2022-09-12T04:23:57.710Z,100.00
2022-09-12T04:26:24.142Z,100.00
2022-09-12T04:28:53.666Z,100.00
2022-09-12T04:31:22.638Z,100.00
2022-09-12T04:33:56.365Z,100.00
2022-09-12T04:36:23.130Z,100.00
2022-09-12T04:38:49.930Z,100.00
2022-09-12T04:41:17.684Z,100.00
2022-09-12T04:43:46.423Z,100.00
2022-09-12T04:46:13.592Z,100.00
2022-09-12T04:48:40.002Z,100.00
2022-09-12T04:51:14.074Z,100.00
2022-09-12T04:53:40.764Z,100.00
2022-09-12T04:56:09.522Z,100.00
2022-09-12T04:58:36.207Z,100.00
2022-09-12T05:01:10.011Z,100.00
2022-09-12T05:03:38.973Z,100.00
2022-09-12T05:06:07.076Z,100.00
2022-09-12T05:08:35.319Z,100.00
2022-09-12T05:11:03.673Z,100.00
2022-09-12T05:13:30.051Z,100.00
2022-09-12T05:15:57.311Z,100.00
2022-09-12T05:18:23.869Z,100.00
2022-09-12T05:20:50.279Z,100.00
2022-09-12T05:23:16.641Z,100.00
2022-09-12T05:25:50.516Z,100.00
2022-09-12T05:28:17.053Z,100.00
2022-09-12T05:30:43.368Z,100.00
2022-09-12T05:33:09.877Z,100.00
2022-09-12T05:35:38.005Z,100.00
2022-09-12T05:38:05.371Z,100.00
2022-09-12T05:40:31.876Z,100.00
2022-09-12T05:42:58.510Z,100.00
2022-09-12T05:45:25.103Z,100.00
2022-09-12T05:47:51.475Z,100.00
2022-09-12T05:50:17.833Z,100.00
2022-09-12T05:52:44.152Z,100.00
2022-09-12T05:55:11.507Z,100.00
2022-09-12T05:57:37.894Z,100.00
2022-09-12T06:00:05.480Z,100.00
2022-09-12T06:02:31.861Z,100.00
2022-09-12T06:04:58.255Z,100.00
2022-09-12T06:07:24.701Z,100.00
2022-09-12T06:09:51.076Z,100.00
2022-09-12T06:12:17.478Z,100.00
2022-09-12T06:14:43.842Z,100.00
2022-09-12T06:17:10.235Z,100.00
2022-09-12T06:19:36.807Z,100.00
2022-09-12T06:22:03.199Z,100.00
2022-09-12T06:24:29.568Z,100.00
2022-09-12T06:26:55.891Z,100.00
2022-09-12T06:29:22.338Z,100.00
2022-09-12T06:31:48.736Z,100.00
2022-09-12T06:34:15.759Z,100.00
2022-09-12T06:36:46.086Z,100.00
2022-09-12T06:39:14.005Z,100.00
2022-09-12T06:41:44.013Z,100.00
2022-09-12T06:44:15.947Z,100.00
2022-09-12T06:46:42.532Z,100.00
2022-09-12T06:49:08.922Z,100.00
2022-09-12T06:51:36.307Z,100.00
2022-09-12T06:54:03.049Z,100.00
2022-09-12T06:56:29.472Z,100.00
2022-09-12T06:58:56.975Z,100.00
2022-09-12T07:01:24.979Z,100.00
2022-09-12T07:03:53.421Z,100.00
2022-09-12T07:06:20.906Z,100.00
2022-09-12T07:08:47.517Z,100.00
2022-09-12T07:11:15.511Z,100.00
2022-09-12T07:13:42.814Z,100.00
2022-09-12T07:16:10.525Z,100.00
2022-09-12T07:18:40.350Z,100.00
2022-09-12T07:21:11.526Z,100.00
2022-09-12T07:23:38.539Z,100.00
2022-09-12T07:26:04.959Z,100.00
2022-09-12T07:28:32.174Z,100.00
2022-09-12T07:30:59.211Z,100.00
2022-09-12T07:33:28.588Z,100.00
2022-09-12T07:35:54.982Z,100.00
2022-09-12T07:38:21.900Z,100.00
2022-09-12T07:40:48.328Z,100.00
2022-09-12T07:43:15.122Z,100.00
2022-09-12T07:45:42.334Z,100.00
2022-09-12T07:48:09.056Z,100.00
2022-09-12T07:50:36.710Z,100.00
2022-09-12T07:53:06.405Z,100.00
2022-09-12T07:55:33.076Z,100.00
2022-09-12T07:57:59.469Z,100.00
2022-09-12T08:00:26.696Z,100.00
2022-09-12T08:02:54.131Z,100.00
2022-09-12T08:05:20.814Z,100.00
2022-09-12T08:07:47.402Z,100.00
2022-09-12T08:10:13.774Z,100.00
2022-09-12T16:17:42.346Z,72.61
2022-09-12T16:20:09.905Z,73.46
2022-09-12T16:22:37.238Z,70.87
2022-09-12T16:25:04.407Z,73.62
2022-09-12T16:27:31.053Z,74.03
2022-09-12T16:29:57.713Z,74.25
2022-09-12T16:32:24.305Z,74.69
2022-09-12T16:34:50.930Z,76.13
2022-09-12T16:37:18.093Z,77.15
2022-09-12T16:39:44.890Z,77.22
2022-09-12T16:42:11.367Z,78.41
2022-09-12T16:44:37.873Z,79.12
2022-09-12T16:47:04.412Z,78.36
2022-09-12T16:49:30.995Z,77.84
2022-09-12T16:51:57.426Z,79.19
2022-09-12T16:54:23.991Z,80.93
2022-09-12T16:56:50.580Z,80.55
2022-09-12T16:59:17.272Z,81.62
2022-09-12T17:01:45.160Z,82.04
2022-09-12T17:04:11.922Z,82.11
2022-09-12T17:06:38.884Z,84.16
2022-09-12T17:09:05.573Z,84.87
2022-09-12T17:11:38.104Z,83.63
2022-09-12T17:14:07.848Z,85.84
2022-09-12T17:16:37.204Z,88.30
2022-09-12T17:19:05.357Z,86.67
2022-09-12T17:21:32.394Z,86.18
2022-09-12T17:23:59.279Z,86.21
2022-09-12T17:26:26.716Z,85.52
2022-09-12T17:28:53.414Z,86.19
2022-09-12T17:31:20.244Z,87.91
2022-09-12T17:33:47.130Z,88.88
2022-09-12T17:36:16.406Z,90.22
2022-09-12T17:38:44.978Z,89.72
2022-09-12T17:41:16.076Z,89.90
2022-09-12T17:43:42.874Z,89.71
2022-09-12T17:46:09.484Z,89.58
2022-09-12T17:48:36.068Z,90.48
2022-09-12T17:51:10.004Z,90.10
2022-09-12T17:53:36.600Z,88.79
2022-09-12T17:56:07.261Z,90.29
2022-09-12T17:58:34.229Z,90.31
2022-09-12T18:01:25.011Z,90.08
2022-09-12T18:04:00.555Z,90.54
2022-09-12T18:06:28.791Z,89.65
2022-09-12T18:08:55.500Z,88.71
2022-09-12T18:11:22.019Z,85.86
2022-09-12T18:13:48.553Z,85.14
2022-09-12T18:16:15.313Z,85.01
2022-09-12T18:18:42.018Z,84.69
2022-09-12T18:21:11.269Z,85.47
2022-09-12T18:23:38.138Z,84.98
2022-09-12T18:26:10.709Z,84.18
2022-09-12T18:28:41.408Z,84.57
2022-09-12T18:31:14.200Z,84.51
2022-09-12T18:33:41.252Z,84.21
2022-09-12T18:36:10.193Z,83.96
2022-09-12T18:38:37.323Z,83.79
2022-09-12T18:41:09.246Z,83.47
2022-09-12T18:43:35.923Z,83.59
2022-09-12T18:46:07.355Z,84.07
2022-09-12T18:48:34.686Z,84.29
2022-09-12T18:51:06.122Z,84.03
2022-09-12T18:53:33.657Z,83.77
2022-09-12T18:56:06.185Z,84.26
2022-09-12T18:58:32.670Z,83.60
2022-09-12T19:00:59.326Z,83.45
2022-09-12T19:03:25.945Z,84.04
2022-09-12T19:05:52.509Z,84.19
2022-09-12T19:08:19.068Z,84.38
2022-09-12T19:10:45.882Z,84.72
2022-09-12T19:13:12.344Z,84.83
2022-09-12T19:15:41.687Z,84.67
2022-09-12T19:18:09.474Z,85.79
2022-09-12T19:20:37.421Z,85.39
2022-09-12T19:23:04.053Z,85.33
2022-09-12T19:25:30.658Z,85.21
2022-09-12T19:27:57.153Z,85.37
2022-09-12T19:30:23.695Z,85.71
2022-09-12T19:32:50.143Z,86.09
2022-09-12T19:35:16.644Z,85.50
2022-09-12T19:37:43.104Z,85.75
2022-09-12T19:40:09.960Z,85.83
2022-09-12T19:42:36.497Z,85.70
2022-09-12T19:45:03.038Z,85.52
2022-09-12T19:47:29.542Z,85.50
2022-09-12T19:49:56.054Z,84.86
2022-09-12T19:52:22.665Z,84.91
2022-09-12T19:54:49.124Z,84.43
2022-09-12T19:57:15.724Z,84.46
2022-09-12T19:59:42.705Z,84.59
2022-09-12T20:02:09.282Z,84.63
2022-09-12T20:04:36.781Z,84.43
2022-09-12T20:07:03.283Z,84.79
2022-09-12T20:09:29.782Z,85.22
2022-09-12T20:11:56.276Z,85.30
2022-09-12T20:14:22.807Z,85.08
2022-09-12T20:16:49.466Z,85.02
2022-09-12T20:19:15.925Z,85.71
2022-09-12T20:21:42.478Z,85.59
2022-09-12T20:24:14.033Z,85.83
2022-09-12T20:26:40.938Z,86.67
2022-09-12T20:29:08.378Z,86.45
2022-09-12T20:31:36.953Z,85.07
2022-09-12T20:34:03.936Z,83.83
2022-09-12T20:36:30.544Z,83.19
2022-09-12T20:39:00.127Z,82.89
2022-09-12T20:41:29.234Z,82.21
2022-09-12T20:43:57.086Z,81.34
2022-09-12T20:46:25.469Z,80.17
2022-09-12T20:48:52.758Z,82.20
2022-09-12T20:51:26.457Z,83.52
2022-09-12T20:54:00.662Z,85.33
2022-09-12T20:56:28.410Z,85.79
2022-09-12T20:58:55.952Z,85.01
2022-09-12T21:01:23.389Z,84.13
2022-09-12T21:03:50.247Z,82.98
2022-09-12T21:06:17.168Z,80.09
2022-09-12T21:08:44.615Z,78.97
2022-09-12T21:11:11.280Z,79.74
2022-09-12T21:13:38.360Z,80.65
2022-09-12T21:16:16.731Z,81.16
2022-09-12T21:18:44.102Z,81.98
2022-09-12T21:21:13.421Z,82.19
2022-09-12T21:23:40.879Z,82.50
2022-09-12T21:26:08.203Z,83.27
2022-09-12T21:28:34.756Z,82.34
2022-09-12T21:31:01.441Z,81.89
2022-09-12T21:33:28.303Z,80.46
2022-09-12T21:35:55.432Z,80.34
2022-09-12T21:38:21.987Z,80.26
2022-09-12T21:40:48.542Z,80.52
2022-09-12T21:43:15.245Z,81.10
2022-09-12T21:45:42.094Z,80.77
2022-09-12T21:48:08.623Z,80.36
2022-09-12T21:50:35.142Z,80.18
2022-09-12T21:53:01.777Z,80.52
2022-09-12T21:55:28.221Z,79.91
2022-09-12T21:57:56.229Z,79.60
2022-09-12T22:00:22.903Z,79.36
2022-09-12T22:02:49.586Z,79.22
2022-09-12T22:05:17.142Z,79.54
2022-09-12T22:07:43.907Z,79.60
2022-09-12T22:10:10.812Z,79.54
2022-09-12T22:12:37.273Z,78.93
2022-09-12T22:15:22.995Z,78.92
2022-09-12T22:17:51.167Z,78.71
2022-09-12T22:20:17.749Z,78.23
2022-09-12T22:23:02.753Z,78.06
2022-09-12T22:25:29.372Z,78.00
2022-09-12T22:27:55.842Z,77.48
2022-09-12T22:30:22.607Z,77.40
2022-09-12T22:32:51.082Z,77.84
2022-09-12T22:35:18.484Z,78.09
2022-09-12T22:37:46.983Z,78.23
2022-09-12T22:40:14.268Z,77.87
2022-09-12T22:42:40.822Z,77.94
2022-09-12T22:45:08.096Z,78.84
2022-09-12T22:47:34.599Z,80.20
2022-09-12T22:50:01.185Z,81.14
2022-09-12T22:52:27.801Z,81.55
2022-09-12T22:54:54.265Z,81.84
2022-09-12T22:57:20.783Z,81.94
2022-09-12T22:59:47.243Z,83.04
2022-09-12T23:02:13.755Z,83.83
2022-09-12T23:04:40.207Z,84.40
2022-09-12T23:07:06.714Z,85.35
2022-09-12T23:09:35.410Z,86.65
2022-09-12T23:12:02.663Z,87.00
2022-09-12T23:14:31.375Z,87.25
2022-09-12T23:16:58.014Z,87.89
2022-09-12T23:19:24.479Z,87.38
2022-09-12T23:21:51.107Z,86.81
2022-09-12T23:24:17.869Z,86.01
2022-09-12T23:26:44.474Z,84.97
2022-09-12T23:29:11.407Z,84.45
2022-09-12T23:31:38.163Z,81.53
2022-09-12T23:34:05.955Z,81.12
2022-09-12T23:36:33.530Z,81.46
2022-09-12T23:39:00.092Z,81.76
2022-09-12T23:41:26.706Z,82.33
2022-09-12T23:43:53.695Z,82.45
2022-09-12T23:46:21.059Z,82.61
2022-09-12T23:48:47.714Z,81.75
2022-09-12T23:51:14.983Z,80.86
2022-09-12T23:53:42.137Z,80.25
2022-09-12T23:56:09.085Z,80.12
2022-09-12T23:58:35.847Z,80.11
